Terminal Aerodrome Forecast
Issued by NWS

Home | Current Version | Previous Version | Text Only | Print | Product List | Glossary On
Versions: 1 2 3 4 5 6 7 8 9 10 11 12 13 14 15 16 17 18
000
FTAK31 PAFA 201134
TAFATA
TAF
PATA 201134Z 2012/2112 36004KT P6SM SKC
     FM201400 35003KT 3SM BR SCT005 OVC015
     FM201800 06004KT P6SM BKN050=

USA.gov is the U.S. government's official web portal to all federal, state and local government web resources and services.